< Cyclone 195701 1957 Season Cyclone 195703 >
Cyclone 195702 (unnamed)
General InformationTrack Information on Google Maps || ResourceGoogle EarthGE AnimationAtom FeedGeoJSON
Detalied Best Track (Time Zone = UTC)
Year Month Day Hour Lat. Long. Pressure (hPa) Wind (kt) Class Image Chart
1956 10 28 01 -9.7 97.7 1000 0 0 -- --
1956 10 28 04 -10.2 97.0 1000 0 0 -- --
1956 10 28 07 -10.7 96.4 1000 0 0 -- --
1956 10 28 10 -11.2 95.8 1000 0 0 -- --
1956 10 28 16 -12.2 94.6 1000 0 0 -- --
1956 10 28 19 -12.7 94.0 1000 0 0 -- --
1956 10 28 22 -13.2 93.3 1000 0 0 -- --
1956 10 29 01 -13.7 92.7 999 0 0 -- --
1956 10 29 04 -13.9 92.8 999 0 0 -- --
1956 10 29 07 -14.1 93.0 999 0 0 -- --
1956 10 29 10 -14.4 93.1 999 0 0 -- --
1956 10 29 16 -15.0 93.4 999 0 0 -- --
1956 10 29 19 -15.3 93.5 999 0 0 -- --
1956 10 29 22 -15.6 93.6 999 0 0 -- --
1956 10 30 01 -15.9 93.7 1000 0 0 -- --
1956 10 30 04 -16.0 94.0 1000 0 0 -- --
1956 10 30 07 -16.2 94.4 1000 0 0 -- --
1956 10 30 10 -16.3 94.7 1000 0 0 -- --
1956 10 30 16 -16.6 95.4 1000 0 0 -- --
1956 10 30 19 -16.7 95.7 1000 0 0 -- --
1956 10 30 22 -16.8 96.0 1000 0 0 -- --
1956 10 31 01 -16.9 96.2 1000 0 0 -- --
1956 10 31 04 -17.1 96.3 1000 0 0 -- --
1956 10 31 07 -17.4 96.4 1001 0 0 -- --
1956 10 31 10 -17.7 96.5 1001 0 0 -- --
1956 10 31 16 -18.2 96.6 1002 0 0 -- --
1956 10 31 19 -18.4 96.7 1003 0 0 -- --
1956 10 31 22 -18.6 96.7 1003 0 0 -- --
1956 11 1 01 -18.9 96.8 1004 0 0 -- --
< Cyclone 195701 1957 Season Cyclone 195703 >

Help